Time;durP1;ratioP1;P1;durP2;ratioP2;P2;SDS_P1;SDS_P2;PMS_P1;PMS_P2;Temp;Humidity;BMP_temperature;BMP_pressure;BME280_temperature;BME280_humidity;BME280_pressure;Samples;Min_cycle;Max_cycle;Signal;HPM_P1;HPM_P2
2023/06/27 00:01:39;;;;;;;5.90;4.93;;;;;;;-144.30;89.34;84760.34;5049028;28;20197;-73
2023/06/27 00:04:06;;;;;;;6.18;5.57;;;;;;;-144.30;88.58;84406.59;5049157;28;20211;-74
2023/06/27 00:06:37;;;;;;;8.30;4.70;;;;;;;-144.30;88.34;84756.38;5049060;28;20162;-73
2023/06/27 00:09:05;;;;;;;4.78;4.47;;;;;;;-144.30;88.13;84736.50;5049556;28;20159;-74
2023/06/27 00:11:32;;;;;;;6.10;5.10;;;;;;;-144.30;87.78;84776.25;5049133;28;20185;-73
2023/06/27 00:14:04;;;;;;;6.20;4.93;;;;;;;-144.30;87.68;84788.19;5050015;28;20163;-74
2023/06/27 00:16:32;;;;;;;6.20;4.82;;;;;;;-144.30;87.71;84774.25;5053218;28;20175;-73
2023/06/27 00:19:03;;;;;;;4.85;4.45;;;;;;;-144.30;87.48;84704.69;5053283;28;20205;-74
2023/06/27 00:21:30;;;;;;;5.03;4.63;;;;;;;-144.30;87.61;84760.34;5052728;28;20158;-73
2023/06/27 00:23:58;;;;;;;6.00;4.90;;;;;;;-144.30;87.73;84649.03;5052532;28;20284;-73
2023/06/27 00:26:27;;;;;;;5.28;4.63;;;;;;;-144.30;88.01;84766.31;5052669;28;20206;-73
2023/06/27 00:28:53;;;;;;;4.80;4.50;;;;;;;-144.30;87.95;84774.25;5052405;28;20200;-74
2023/06/27 00:31:22;;;;;;;7.63;5.10;;;;;;;-144.30;87.66;84784.19;5053275;28;20193;-73
2023/06/27 00:33:49;;;;;;;6.47;5.88;;;;;;;-144.30;88.04;84788.19;5052408;28;20227;-72
2023/06/27 00:36:16;;;;;;;6.22;5.47;;;;;;;-144.30;88.40;84800.09;5052966;28;20291;-73
2023/06/27 00:38:43;;;;;;;6.05;5.45;;;;;;;-144.30;88.59;84782.22;5052342;28;20200;-76
2023/06/27 00:41:10;;;;;;;7.53;5.57;;;;;;;-144.30;89.05;84780.22;5054526;28;20290;-76
2023/06/27 00:43:37;;;;;;;8.55;5.88;;;;;;;-144.30;89.25;84841.84;5054388;28;20208;-77
2023/06/27 00:46:07;;;;;;;9.23;6.25;;;;;;;-144.30;89.59;84812.03;5054845;28;20592;-77
2023/06/27 00:48:37;;;;;;;6.60;6.10;;;;;;;-144.30;89.31;84849.78;5053883;28;20203;-76
2023/06/27 00:51:04;;;;;;;9.35;7.40;;;;;;;-144.30;89.28;84935.25;5053839;28;20561;-77
2023/06/27 00:53:31;;;;;;;11.80;7.35;;;;;;;-144.30;89.08;84845.81;5053746;28;20196;-77
2023/06/27 00:55:59;;;;;;;12.13;8.45;;;;;;;-144.30;89.63;84792.16;5053623;28;20197;-78
2023/06/27 00:58:26;;;;;;;15.48;9.40;;;;;;;-144.30;90.76;84762.34;5053518;28;20591;-78
2023/06/27 01:00:53;;;;;;;15.20;8.32;;;;;;;-144.30;91.43;84804.06;5052893;28;20224;-77
2023/06/27 01:03:20;;;;;;;10.77;9.00;;;;;;;-144.30;92.11;85541.56;5054219;28;20201;-77
2023/06/27 01:05:49;;;;;;;10.77;8.57;;;;;;;-144.30;92.59;84877.63;5053131;28;20640;-73
2023/06/27 01:08:27;;;;;;;12.13;9.55;;;;;;;-144.30;92.76;85493.84;5052393;28;20676;-73
2023/06/27 01:11:00;;;;;;;18.38;12.20;;;;;;;-144.30;92.79;84879.59;5052017;28;20646;-73
2023/06/27 01:13:32;;;;;;;19.08;12.55;;;;;;;-144.30;93.83;84851.78;5052369;28;20205;-74
2023/06/27 01:16:00;;;;;;;20.35;12.63;;;;;;;-144.30;95.04;84889.53;5052154;28;20197;-73
2023/06/27 01:18:28;;;;;;;20.92;13.50;;;;;;;-144.30;96.09;84931.28;5051823;28;20748;-74
2023/06/27 01:20:58;;;;;;;21.50;15.05;;;;;;;-144.30;96.89;84931.28;5051410;28;20227;-74
2023/06/27 01:23:30;;;;;;;26.08;14.93;;;;;;;-144.30;97.52;84897.50;5052758;28;20232;-75
2023/06/27 01:26:05;;;;;;;24.52;15.60;;;;;;;-144.30;98.02;84935.25;5051964;28;20207;-74
2023/06/27 01:28:33;;;;;;;25.23;16.60;;;;;;;-144.30;98.21;84923.34;5052381;28;20196;-73
2023/06/27 01:31:01;;;;;;;25.30;16.10;;;;;;;-144.30;98.65;84899.47;5051682;28;20201;-74
2023/06/27 01:33:33;;;;;;;24.38;16.10;;;;;;;-144.30;99.00;84939.25;5052432;28;20197;-74
2023/06/27 01:36:05;;;;;;;23.42;15.95;;;;;;;-144.30;99.01;84935.25;5053484;28;20250;-74
2023/06/27 01:38:38;;;;;;;33.35;17.83;;;;;;;-144.30;98.60;84907.44;5051834;28;20201;-74
2023/06/27 01:41:11;;;;;;;23.23;17.30;;;;;;;-144.30;98.79;84931.28;5052089;28;20220;-74
2023/06/27 01:43:40;;;;;;;26.13;17.05;;;;;;;-144.30;98.60;84927.31;5051809;28;20215;-74
2023/06/27 01:46:09;;;;;;;22.33;13.73;;;;;;;-144.30;98.42;84847.81;5052138;28;20262;-74
2023/06/27 01:48:38;;;;;;;20.35;13.75;;;;;;;-144.30;97.66;84937.25;5051165;28;20192;-73
2023/06/27 01:51:08;;;;;;;22.65;13.63;;;;;;;-144.30;97.41;84921.34;5053088;28;20197;-77
2023/06/27 01:53:35;;;;;;;21.40;12.77;;;;;;;-144.30;97.31;84933.28;5053522;28;20204;-78
2023/06/27 01:56:02;;;;;;;18.40;11.05;;;;;;;-144.30;96.82;84939.25;5053528;28;20258;-77
2023/06/27 01:58:31;;;;;;;15.63;11.00;;;;;;;-144.30;96.69;84927.31;5053006;28;20196;-77
2023/06/27 02:00:58;;;;;;;18.77;10.05;;;;;;;-144.30;96.27;84911.41;5052117;28;20601;-77
2023/06/27 02:03:25;;;;;;;15.30;10.35;;;;;;;-144.30;96.11;84951.16;5052666;28;20205;-78
2023/06/27 02:05:52;;;;;;;15.32;10.35;;;;;;;-144.30;96.05;84919.34;5052432;28;20593;-78
2023/06/27 02:08:19;;;;;;;18.10;11.45;;;;;;;-144.30;96.42;84961.09;5052502;28;20197;-77
2023/06/27 02:10:46;;;;;;;20.27;12.60;;;;;;;-144.30;97.57;84919.34;5052482;28;20315;-77
2023/06/27 02:13:13;;;;;;;20.98;12.60;;;;;;;-144.30;97.75;84947.19;5052045;28;20193;-77
2023/06/27 02:15:41;;;;;;;16.30;11.18;;;;;;;-144.30;98.62;84905.44;5051341;28;20655;-75
2023/06/27 02:18:08;;;;;;;14.05;10.85;;;;;;;-144.30;98.66;84967.06;5051480;28;20203;-77
2023/06/27 02:20:35;;;;;;;14.43;11.13;;;;;;;-144.30;98.82;84875.63;5051740;28;20224;-77
2023/06/27 02:23:02;;;;;;;13.32;10.15;;;;;;;-144.30;99.07;84990.91;5051467;28;20196;-78
2023/06/27 02:25:29;;;;;;;10.52;9.23;;;;;;;-144.30;98.94;84982.97;5052557;28;20220;-77
2023/06/27 02:27:56;;;;;;;11.63;9.60;;;;;;;-144.30;98.91;84973.03;5051781;28;20201;-77
2023/06/27 02:30:23;;;;;;;9.65;8.77;;;;;;;-144.30;99.51;84986.94;5052193;28;20194;-76
2023/06/27 02:32:51;;;;;;;13.27;9.15;;;;;;;-144.30;99.23;84996.88;5051184;28;20690;-77
2023/06/27 02:35:18;;;;;;;10.18;8.50;;;;;;;-144.30;99.50;84943.22;5052464;28;20200;-77
2023/06/27 02:37:45;;;;;;;10.18;8.52;;;;;;;-144.30;100.00;84992.91;5051611;28;20201;-77
2023/06/27 02:40:13;;;;;;;9.65;8.35;;;;;;;-144.30;100.00;84724.56;5051158;28;20635;-78
2023/06/27 02:42:40;;;;;;;15.68;9.07;;;;;;;-144.30;100.00;84959.13;5050959;28;20200;-77
2023/06/27 02:45:07;;;;;;;9.57;8.68;;;;;;;-144.30;100.00;84990.91;5051560;28;20280;-77
2023/06/27 02:47:34;;;;;;;14.68;9.10;;;;;;;-144.30;100.00;84963.09;5051966;28;20200;-77
2023/06/27 02:50:03;;;;;;;9.90;8.85;;;;;;;-144.30;100.00;84965.06;5051596;28;20744;-77
2023/06/27 02:52:29;;;;;;;15.60;9.85;;;;;;;-144.30;100.00;85000.84;5052142;28;20283;-78
2023/06/27 02:54:56;;;;;;;12.88;8.88;;;;;;;-144.30;100.00;85038.63;5051396;28;20193;-78
2023/06/27 02:57:23;;;;;;;14.93;9.13;;;;;;;-144.30;100.00;85022.72;5052601;28;20224;-77
2023/06/27 02:59:50;;;;;;;11.73;9.02;;;;;;;-144.30;100.00;85002.84;5051852;28;20207;-78
2023/06/27 03:02:17;;;;;;;12.43;8.93;;;;;;;-144.30;100.00;85030.66;5052026;28;20224;-79
2023/06/27 03:04:44;;;;;;;11.32;9.05;;;;;;;-144.30;100.00;85014.78;5052627;28;20592;-76
2023/06/27 03:07:12;;;;;;;9.05;8.13;;;;;;;-144.30;100.00;85010.78;5051578;28;20200;-77
2023/06/27 03:09:39;;;;;;;10.32;8.73;;;;;;;-144.30;100.00;84971.03;5051299;28;20673;-76
2023/06/27 03:12:07;;;;;;;12.43;8.40;;;;;;;-144.30;100.00;84967.06;5051617;28;20620;-77
2023/06/27 03:14:34;;;;;;;16.58;9.10;;;;;;;-144.30;100.00;85006.81;5051434;28;20207;-77
2023/06/27 03:17:01;;;;;;;9.38;8.40;;;;;;;-144.30;100.00;84967.06;5052510;28;20408;-78
2023/06/27 03:19:28;;;;;;;11.50;8.20;;;;;;;-144.30;100.00;84982.97;5051897;28;20287;-77
2023/06/27 03:21:55;;;;;;;13.65;8.70;;;;;;;-144.30;100.00;84959.13;5051271;28;20264;-76
2023/06/27 03:24:23;;;;;;;10.55;8.13;;;;;;;-144.30;99.85;84943.22;5051434;28;20203;-77
2023/06/27 03:26:50;;;;;;;9.57;7.90;;;;;;;-144.30;99.42;84967.06;5051063;28;20236;-77
2023/06/27 03:29:17;;;;;;;16.98;8.82;;;;;;;-144.30;99.43;84967.06;5050854;28;20584;-77
2023/06/27 03:31:44;;;;;;;16.25;9.00;;;;;;;-144.30;98.65;84975.00;5052076;28;20193;-76
2023/06/27 03:34:11;;;;;;;26.90;15.45;;;;;;;-144.30;98.40;84901.47;5050952;28;20204;-77
2023/06/27 03:36:38;;;;;;;26.33;16.35;;;;;;;-144.30;98.09;84899.47;5050788;28;20663;-77
2023/06/27 03:39:05;;;;;;;28.75;16.92;;;;;;;-144.30;97.95;84887.56;5049924;28;20532;-77
2023/06/27 03:41:33;;;;;;;31.48;18.02;;;;;;;-144.30;97.27;84818.00;5051052;28;20274;-77
2023/06/27 03:44:00;;;;;;;29.35;16.90;;;;;;;-144.30;96.85;84857.75;5051111;28;20172;-77
2023/06/27 03:46:27;;;;;;;22.10;16.13;;;;;;;-144.30;96.02;84861.72;5051017;28;20227;-77
2023/06/27 03:48:58;;;;;;;31.67;17.00;;;;;;;-144.30;95.23;84732.53;5052925;28;20274;-77
2023/06/27 03:51:25;;;;;;;29.25;15.77;;;;;;;-144.30;93.96;84768.31;5054737;28;20234;-77
2023/06/27 03:53:52;;;;;;;22.85;13.90;;;;;;;-144.30;93.29;84746.44;5053885;28;20196;-77
2023/06/27 03:56:19;;;;;;;19.33;13.05;;;;;;;-144.30;90.05;84446.31;5055018;28;20197;-77
2023/06/27 03:58:47;;;;;;;19.77;12.30;;;;;;;-144.30;82.41;84235.66;5054735;28;20575;-77
2023/06/27 04:01:14;;;;;;;22.00;11.68;;;;;;;-144.30;76.12;83961.44;5054768;28;20212;-77
2023/06/27 04:03:41;;;;;;;18.75;11.68;;;;;;;-144.30;70.08;83705.09;5054385;28;20207;-77
2023/06/27 04:06:08;;;;;;;17.75;10.80;;;;;;;-144.30;64.79;83353.44;5054491;28;20574;-78
2023/06/27 04:08:35;;;;;;;21.38;11.93;;;;;;;-144.30;57.28;83124.97;5054804;28;21211;-78
2023/06/27 04:11:02;;;;;;;15.30;10.48;;;;;;;-144.30;53.59;82932.28;5054867;28;20216;-77
2023/06/27 04:13:29;;;;;;;14.98;10.43;;;;;;;-144.30;52.93;82970.00;5054209;28;20208;-78
2023/06/27 04:15:57;;;;;;;17.02;10.77;;;;;;;-144.30;54.67;83138.88;5054804;28;20223;-77
2023/06/27 04:18:24;;;;;;;22.35;11.00;;;;;;;-144.30;54.24;83079.28;5053410;28;20197;-74
2023/06/27 04:20:51;;;;;;;25.35;10.85;;;;;;;-144.30;52.34;82924.31;5053575;28;20224;-74
2023/06/27 04:23:18;;;;;;;16.15;11.15;;;;;;;-144.30;50.22;82739.56;5053507;28;20196;-74
2023/06/27 04:25:45;;;;;;;16.15;10.48;;;;;;;-144.30;47.77;82491.28;5053641;28;20207;-74
2023/06/27 04:28:13;;;;;;;16.92;8.93;;;;;;;-144.30;46.99;82358.22;5054168;28;20592;-74
2023/06/27 04:30:40;;;;;;;12.02;8.85;;;;;;;-144.30;47.04;82538.97;5053280;28;20647;-73
2023/06/27 04:33:08;;;;;;;15.80;9.73;;;;;;;-144.30;48.55;82598.56;5053100;28;20243;-74
2023/06/27 04:35:35;;;;;;;19.88;10.93;;;;;;;-144.30;47.14;82455.53;5053156;28;20572;-74
2023/06/27 04:38:04;;;;;;;20.17;11.52;;;;;;;-144.30;46.11;82250.97;5052247;28;20199;-74
2023/06/27 04:40:31;;;;;;;20.33;12.57;;;;;;;-144.30;44.35;82135.75;5053317;28;20207;-73
2023/06/27 04:42:58;;;;;;;20.17;13.75;;;;;;;-144.30;43.37;82018.59;5052805;28;20205;-73
2023/06/27 04:45:25;;;;;;;20.42;15.07;;;;;;;-144.30;42.10;81871.63;5052722;28;20200;-74
2023/06/27 04:47:52;;;;;;;21.42;15.50;;;;;;;-144.30;40.96;81780.28;5052788;28;20242;-74
2023/06/27 04:50:20;;;;;;;22.98;15.25;;;;;;;-144.30;39.96;81597.59;5055084;28;20207;-74
2023/06/27 04:52:47;;;;;;;18.70;13.40;;;;;;;-144.30;39.81;81661.13;5054345;28;20192;-74
2023/06/27 04:55:15;;;;;;;24.50;14.80;;;;;;;-144.30;38.95;81962.97;5053694;28;20204;-74
2023/06/27 04:57:42;;;;;;;27.05;14.80;;;;;;;-144.30;39.01;81557.88;5052916;28;20659;-74
2023/06/27 05:00:11;;;;;;;16.77;14.25;;;;;;;-144.30;39.76;81738.56;5052217;28;20626;-74
2023/06/27 05:02:38;;;;;;;16.38;12.60;;;;;;;-144.30;38.36;81476.47;5052940;28;20757;-74
2023/06/27 05:05:07;;;;;;;16.60;10.90;;;;;;;-144.30;38.26;81464.53;5052914;28;20200;-74
2023/06/27 05:07:36;;;;;;;11.05;8.82;;;;;;;-144.30;38.03;81367.25;5053013;28;20204;-75
2023/06/27 05:10:03;;;;;;;12.02;9.15;;;;;;;-144.30;37.12;81254.06;5052294;28;20200;-74
2023/06/27 05:12:29;;;;;;;14.90;8.82;;;;;;;-144.30;36.55;81037.66;5052173;28;20234;-75
2023/06/27 05:14:56;;;;;;;14.85;8.20;;;;;;;-144.30;35.58;80866.91;5053000;28;20200;-74
2023/06/27 05:17:23;;;;;;;21.15;7.40;;;;;;;-144.30;34.88;80652.50;5052322;28;20198;-74
2023/06/27 05:19:50;;;;;;;12.98;7.20;;;;;;;-144.30;34.31;80604.84;5051993;28;20200;-75
2023/06/27 05:22:17;;;;;;;10.02;6.35;;;;;;;-144.30;34.76;80803.38;5051873;28;20220;-74
2023/06/27 05:24:45;;;;;;;14.77;6.63;;;;;;;-144.30;34.50;80563.16;5051760;28;20200;-74
2023/06/27 05:27:12;;;;;;;7.60;6.65;;;;;;;-144.30;33.65;80557.22;5052253;28;20208;-74
2023/06/27 05:29:39;;;;;;;7.03;5.30;;;;;;;-144.30;33.87;80646.53;5051377;28;20204;-74
2023/06/27 05:32:06;;;;;;;5.63;5.10;;;;;;;-144.30;33.44;80537.34;5052061;28;20196;-73
2023/06/27 05:34:33;;;;;;;7.05;4.82;;;;;;;-144.30;32.63;80477.81;5051703;28;20192;-74
2023/06/27 05:37:00;;;;;;;9.30;5.20;;;;;;;-144.30;33.19;80561.19;5052149;28;20200;-75
2023/06/27 05:39:27;;;;;;;9.50;5.57;;;;;;;-144.30;33.86;80708.09;5051804;28;20198;-75
2023/06/27 05:41:55;;;;;;;10.60;7.43;;;;;;;-144.30;33.95;80807.34;5051731;28;20224;-74
2023/06/27 05:44:22;;;;;;;7.43;5.60;;;;;;;-144.30;34.15;80829.19;5052269;28;20221;-75
2023/06/27 05:46:49;;;;;;;8.05;5.20;;;;;;;-144.30;33.53;80704.13;5052133;28;20691;-75
2023/06/27 05:49:17;;;;;;;14.75;9.73;;;;;;;-144.30;33.58;80749.78;5052537;28;20230;-74
2023/06/27 05:51:43;;;;;;;8.40;5.63;;;;;;;-144.30;33.83;80841.09;5051953;28;20226;-73
2023/06/27 05:54:10;;;;;;;10.40;6.20;;;;;;;-144.30;34.06;80894.69;5051939;28;20207;-72
2023/06/27 05:56:39;;;;;;;6.07;5.25;;;;;;;-144.30;34.42;81005.88;5052607;28;20195;-78
2023/06/27 05:59:07;;;;;;;6.65;4.85;;;;;;;-144.30;34.71;81025.72;5052302;28;20203;-79
2023/06/27 06:01:34;;;;;;;8.98;8.13;;;;;;;-144.30;34.66;80990.00;5051831;28;20230;-79
2023/06/27 06:04:01;;;;;;;6.00;5.50;;;;;;;-144.30;33.77;80823.22;5052868;28;20200;-77
2023/06/27 06:06:29;;;;;;;8.30;5.30;;;;;;;-144.30;33.85;80795.44;5052634;28;20204;-77
2023/06/27 06:08:55;;;;;;;6.75;5.70;;;;;;;-144.30;34.41;80950.28;5052354;28;20214;-77
2023/06/27 06:11:22;;;;;;;6.78;6.05;;;;;;;-144.30;34.22;80926.47;5053244;28;20239;-77
2023/06/27 06:13:49;;;;;;;7.88;5.47;;;;;;;-144.30;34.25;80938.38;5052164;28;20200;-78
2023/06/27 06:16:18;;;;;;;7.65;5.28;;;;;;;-144.30;34.35;81067.44;5053347;28;20176;-78
2023/06/27 06:18:44;;;;;;;5.03;4.72;;;;;;;-144.30;34.74;81180.59;5052994;28;20617;-78
2023/06/27 06:21:12;;;;;;;5.63;4.97;;;;;;;-144.30;35.95;81371.22;5052301;28;20192;-78
2023/06/27 06:23:40;;;;;;;5.93;5.55;;;;;;;-144.30;36.01;81470.50;5052535;28;20281;-79
2023/06/27 06:26:07;;;;;;;8.63;5.07;;;;;;;-144.30;36.19;81478.44;5053636;28;20200;-78
2023/06/27 06:28:33;;;;;;;5.43;4.93;;;;;;;-144.30;35.99;81516.16;5052843;28;20211;-77
2023/06/27 06:31:00;;;;;;;5.22;4.82;;;;;;;-144.30;36.61;81677.00;5052483;28;20681;-78
2023/06/27 06:33:29;;;;;;;4.78;4.47;;;;;;;-144.30;36.75;81684.97;5051941;28;20200;-77
2023/06/27 06:35:56;;;;;;;5.70;5.00;;;;;;;-144.30;37.25;81734.59;5052568;28;20200;-78
2023/06/27 06:38:23;;;;;;;5.35;4.85;;;;;;;-144.30;38.13;81831.91;5052659;28;20196;-78
2023/06/27 06:40:50;;;;;;;5.53;5.13;;;;;;;-144.30;38.81;81974.91;5052058;28;20180;-78
2023/06/27 06:43:17;;;;;;;6.93;5.07;;;;;;;-144.30;39.43;82082.13;5052387;28;20224;-77
2023/06/27 06:45:44;;;;;;;6.18;5.47;;;;;;;-144.30;39.24;82014.63;5051359;28;20211;-77
2023/06/27 06:48:11;;;;;;;5.15;4.78;;;;;;;-144.30;39.39;82034.47;5051166;28;20565;-78
2023/06/27 06:50:39;;;;;;;6.63;5.68;;;;;;;-144.30;39.33;82094.06;5051972;28;20374;-78
2023/06/27 06:53:06;;;;;;;7.32;6.72;;;;;;;-144.30;39.50;81851.78;5052225;28;20588;-78
2023/06/27 06:55:33;;;;;;;7.00;6.35;;;;;;;-144.30;39.09;81964.97;5052397;28;20206;-78
2023/06/27 06:58:00;;;;;;;6.95;6.32;;;;;;;-144.30;38.71;81907.38;5052023;28;20204;-78
2023/06/27 07:00:26;;;;;;;8.98;6.38;;;;;;;-144.30;38.66;81810.06;5052224;28;20200;-78
2023/06/27 07:02:54;;;;;;;7.65;5.85;;;;;;;-144.30;38.32;81810.06;5051826;28;20231;-77
2023/06/27 07:05:21;;;;;;;11.43;6.00;;;;;;;-144.30;38.88;81891.50;5052161;28;20218;-78
2023/06/27 07:07:49;;;;;;;8.57;6.15;;;;;;;-144.30;38.77;81961.00;5051478;28;20204;-77
2023/06/27 07:10:17;;;;;;;6.20;5.55;;;;;;;-144.30;38.60;82014.63;5051454;28;20208;-76
2023/06/27 07:12:44;;;;;;;6.63;6.00;;;;;;;-144.30;39.30;82058.31;5050933;28;20196;-78
2023/06/27 07:15:11;;;;;;;6.60;6.10;;;;;;;-144.30;39.10;82113.91;5051298;28;20204;-78
2023/06/27 07:17:38;;;;;;;6.78;6.13;;;;;;;-144.30;39.64;82161.59;5051617;28;20201;-77
2023/06/27 07:20:06;;;;;;;6.75;6.10;;;;;;;-144.30;39.79;82129.81;5051452;28;20200;-74
2023/06/27 07:22:34;;;;;;;6.22;5.72;;;;;;;-144.30;39.68;82117.88;5050260;28;20228;-74
2023/06/27 07:25:02;;;;;;;7.72;5.90;;;;;;;-144.30;39.40;82117.88;5050225;28;20201;-74
2023/06/27 07:27:29;;;;;;;6.97;5.72;;;;;;;-144.30;38.80;82100.00;5050540;28;20204;-74
2023/06/27 07:29:56;;;;;;;6.43;5.93;;;;;;;-144.30;38.46;81951.06;5050218;28;20196;-74
2023/06/27 07:32:23;;;;;;;6.35;5.78;;;;;;;-144.30;38.73;82002.69;5050274;28;20275;-73
2023/06/27 07:34:49;;;;;;;7.60;6.40;;;;;;;-144.30;38.94;81962.97;5049651;28;20300;-74
2023/06/27 07:37:16;;;;;;;6.75;6.25;;;;;;;-144.30;38.90;81992.78;5049789;28;20576;-74
2023/06/27 07:39:43;;;;;;;6.70;6.30;;;;;;;-144.30;39.00;81927.22;5049749;28;20206;-74
2023/06/27 07:42:12;;;;;;;7.22;6.50;;;;;;;-144.30;38.78;82000.72;5049525;28;20220;-74
2023/06/27 07:44:39;;;;;;;8.55;6.20;;;;;;;-144.30;37.76;81831.91;5050470;28;20302;-73
2023/06/27 07:47:06;;;;;;;7.38;6.70;;;;;;;-144.30;37.21;81790.22;5049964;28;20201;-73
2023/06/27 07:49:33;;;;;;;8.25;7.50;;;;;;;-144.30;36.85;81712.75;5050319;28;20711;-74
2023/06/27 07:52:00;;;;;;;5.90;5.43;;;;;;;-144.30;35.61;81708.78;5050228;28;20200;-74
2023/06/27 07:54:27;;;;;;;8.65;6.70;;;;;;;-144.30;35.68;81637.31;5050347;28;20192;-73
2023/06/27 07:56:56;;;;;;;7.90;6.15;;;;;;;-144.30;35.79;81637.31;5049721;28;20196;-73
2023/06/27 07:59:24;;;;;;;8.00;7.22;;;;;;;-144.30;35.49;81287.81;5049966;28;20576;-74
2023/06/27 08:01:51;;;;;;;7.32;6.50;;;;;;;-144.30;35.05;81488.38;5048828;28;20683;-73
2023/06/27 08:04:18;;;;;;;6.80;6.30;;;;;;;-144.30;35.17;81472.47;5048919;28;20244;-74
2023/06/27 08:06:45;;;;;;;6.90;6.40;;;;;;;-144.30;34.94;81359.31;5048854;28;20199;-74
2023/06/27 08:09:12;;;;;;;5.93;5.43;;;;;;;-144.30;34.09;81295.75;5049241;28;20734;-74
2023/06/27 08:11:39;;;;;;;6.35;5.88;;;;;;;-144.30;33.82;81204.44;5048972;28;20250;-74
2023/06/27 08:14:06;;;;;;;8.57;5.90;;;;;;;-144.30;33.70;81283.84;5049707;28;20567;-74
2023/06/27 08:16:34;;;;;;;5.85;5.38;;;;;;;-144.30;33.81;81585.66;5049690;28;20198;-74
2023/06/27 08:19:01;;;;;;;4.80;4.57;;;;;;;-144.30;33.14;81484.41;5049320;28;20201;-72
2023/06/27 08:21:28;;;;;;;5.15;4.60;;;;;;;-144.30;32.04;81349.38;5049382;28;20483;-74
2023/06/27 08:23:55;;;;;;;5.00;4.60;;;;;;;-144.30;31.91;81353.34;5049304;28;20224;-73
2023/06/27 08:26:22;;;;;;;4.40;4.10;;;;;;;-144.30;32.19;81327.53;5049096;28;20200;-73
2023/06/27 08:28:49;;;;;;;5.47;4.93;;;;;;;-144.30;31.48;81089.28;5049534;28;20196;-74
2023/06/27 08:31:16;;;;;;;9.73;6.97;;;;;;;-144.30;31.76;80926.47;5049257;28;20581;-74
2023/06/27 08:33:44;;;;;;;8.77;5.68;;;;;;;-144.30;32.05;81001.91;5048592;28;20599;-73
2023/06/27 08:36:12;;;;;;;6.15;5.20;;;;;;;-144.30;31.93;80990.00;5051159;28;20669;-74
2023/06/27 08:38:39;;;;;;;6.97;6.40;;;;;;;-144.30;32.54;81089.28;5052806;28;20210;-75
2023/06/27 08:41:06;;;;;;;5.93;5.22;;;;;;;-144.30;32.14;81069.41;5052703;28;20188;-74
2023/06/27 08:43:33;;;;;;;5.32;4.93;;;;;;;-144.30;32.25;81269.94;5052625;28;20242;-74
2023/06/27 08:46:00;;;;;;;7.30;4.85;;;;;;;-144.30;32.50;81397.03;5052950;28;20196;-75
2023/06/27 08:48:27;;;;;;;5.13;4.82;;;;;;;-144.30;32.75;81573.75;5052979;28;20196;-75
2023/06/27 08:50:57;;;;;;;5.60;5.22;;;;;;;-144.30;33.26;81609.50;5052911;28;20200;-75
2023/06/27 08:53:29;;;;;;;6.97;5.93;;;;;;;-144.30;33.83;81647.22;5053051;28;20207;-74
2023/06/27 08:56:03;;;;;;;4.75;4.45;;;;;;;-144.30;32.85;81740.56;5052755;28;20197;-75
2023/06/27 08:58:35;;;;;;;5.25;4.72;;;;;;;-144.30;32.90;81821.97;5052643;28;20757;-75
2023/06/27 09:01:02;;;;;;;4.55;4.18;;;;;;;-144.30;32.71;81774.31;5053211;28;20279;-76
2023/06/27 09:03:29;;;;;;;4.93;4.20;;;;;;;-144.30;32.75;81750.50;5053628;28;20310;-75
2023/06/27 09:05:58;;;;;;;5.93;4.63;;;;;;;-144.30;33.32;81772.34;5051822;28;20287;-75
2023/06/27 09:08:25;;;;;;;5.10;4.80;;;;;;;-144.30;34.03;81849.78;5052632;28;20196;-76
2023/06/27 09:10:52;;;;;;;8.10;4.90;;;;;;;-144.30;34.33;81881.56;5052214;28;20232;-75
2023/06/27 09:13:20;;;;;;;4.72;4.43;;;;;;;-144.30;34.25;81881.56;5052663;28;20208;-75
2023/06/27 09:15:47;;;;;;;5.35;4.85;;;;;;;-144.30;33.60;81788.22;5052739;28;20586;-76
2023/06/27 09:18:14;;;;;;;4.57;4.38;;;;;;;-144.30;33.81;81919.28;5052903;28;20196;-76
2023/06/27 09:20:41;;;;;;;9.70;5.20;;;;;;;-144.30;34.18;82006.69;5052636;28;20204;-74
2023/06/27 09:23:11;;;;;;;5.13;4.18;;;;;;;-144.30;34.82;82199.31;5053025;28;20339;-74
2023/06/27 09:25:38;;;;;;;5.03;4.45;;;;;;;-144.30;34.68;82237.06;5052227;28;20192;-75
2023/06/27 09:28:17;;;;;;;5.00;4.38;;;;;;;-144.30;34.05;82191.38;5052634;28;20555;-75
2023/06/27 09:30:53;;;;;;;5.13;4.72;;;;;;;-144.30;34.14;82086.13;5052093;28;20257;-75
2023/06/27 09:33:20;;;;;;;4.72;4.22;;;;;;;-144.30;33.68;82100.00;5052284;28;20196;-75
2023/06/27 09:35:48;;;;;;;6.93;4.70;;;;;;;-144.30;33.41;82268.84;5051952;28;20234;-75
2023/06/27 09:38:22;;;;;;;5.13;4.72;;;;;;;-144.30;34.01;82002.69;5052023;28;20193;-75
2023/06/27 09:41:01;;;;;;;5.00;4.70;;;;;;;-144.30;33.75;81933.19;5052470;28;20220;-75
2023/06/27 09:43:31;;;;;;;4.90;4.60;;;;;;;-144.30;33.52;81899.44;5052078;28;20224;-75
2023/06/27 09:45:59;;;;;;;5.82;5.32;;;;;;;-144.30;33.16;81820.00;5052333;28;20192;-75
2023/06/27 09:48:28;;;;;;;5.00;4.70;;;;;;;-144.30;32.46;81827.94;5052856;28;20631;-76
2023/06/27 09:50:59;;;;;;;4.68;4.40;;;;;;;-144.30;32.58;81788.22;5052536;28;20231;-75
2023/06/27 09:53:30;;;;;;;4.45;4.15;;;;;;;-144.30;32.05;81831.91;5052466;28;20204;-75
2023/06/27 09:55:58;;;;;;;4.45;4.15;;;;;;;-144.30;31.86;81821.97;5052268;28;20193;-75
2023/06/27 09:58:29;;;;;;;6.75;4.38;;;;;;;-144.30;32.21;81829.94;5052159;28;20565;-74
2023/06/27 10:01:04;;;;;;;4.80;4.50;;;;;;;-144.30;31.87;81740.56;5051977;28;20196;-75
2023/06/27 10:03:31;;;;;;;4.88;4.55;;;;;;;-144.30;31.71;81740.56;5052670;28;20606;-75
2023/06/27 10:05:58;;;;;;;4.78;4.07;;;;;;;-144.30;32.52;81820.00;5051729;28;20201;-74
2023/06/27 10:08:28;;;;;;;8.10;4.30;;;;;;;-144.30;32.00;81808.09;5052049;28;20250;-74
2023/06/27 10:10:57;;;;;;;4.85;3.88;;;;;;;-144.30;31.60;81818.00;5051142;28;20234;-75
2023/06/27 10:13:25;;;;;;;4.57;4.28;;;;;;;-144.30;31.73;81792.19;5051282;28;20254;-74
2023/06/27 10:15:52;;;;;;;4.95;4.72;;;;;;;-144.30;31.80;81891.50;5051270;28;20292;-74
2023/06/27 10:18:19;;;;;;;5.13;4.53;;;;;;;-144.30;32.55;82022.56;5051817;28;20201;-74
2023/06/27 10:20:49;;;;;;;5.72;5.05;;;;;;;-144.30;33.11;82121.88;5050751;28;20199;-75
2023/06/27 10:23:17;;;;;;;5.10;4.78;;;;;;;-144.30;32.93;82145.69;5050287;28;20220;-75
2023/06/27 10:25:48;;;;;;;5.10;4.60;;;;;;;-144.30;33.21;82133.78;5050105;28;20255;-75
2023/06/27 10:28:15;;;;;;;4.82;4.53;;;;;;;-144.30;33.34;82169.53;5049757;28;20694;-75
2023/06/27 10:30:46;;;;;;;7.35;4.22;;;;;;;-144.30;32.73;82050.38;5049982;28;20218;-75
2023/06/27 10:33:22;;;;;;;4.70;4.40;;;;;;;-144.30;33.05;82248.97;5050284;28;20220;-74
2023/06/27 10:35:54;;;;;;;5.03;4.70;;;;;;;-144.30;33.65;82252.94;5050144;28;20200;-75
2023/06/27 10:38:21;;;;;;;6.90;4.60;;;;;;;-144.30;33.07;82262.88;5049995;28;20200;-75
2023/06/27 10:41:09;;;;;;;5.25;4.75;;;;;;;-144.30;33.70;82370.13;5049612;28;20201;-74
2023/06/27 10:43:37;;;;;;;5.03;4.10;;;;;;;-144.30;33.79;82372.13;5049876;28;20220;-74
2023/06/27 10:46:08;;;;;;;6.57;5.80;;;;;;;-144.30;34.30;82443.63;5049269;28;20207;-74
2023/06/27 10:48:36;;;;;;;6.93;6.03;;;;;;;-144.30;34.31;82439.66;5050146;28;20755;-74
2023/06/27 10:51:07;;;;;;;8.73;4.93;;;;;;;-144.30;34.31;82542.94;5049485;28;20197;-75
2023/06/27 10:53:34;;;;;;;6.55;4.90;;;;;;;-144.30;34.94;82620.41;5049655;28;20197;-74
2023/06/27 10:56:17;;;;;;;5.03;4.60;;;;;;;-144.30;35.39;82574.72;5049349;28;20215;-74
2023/06/27 10:58:45;;;;;;;5.05;4.70;;;;;;;-144.30;34.54;82513.13;5048941;28;20293;-74
2023/06/27 11:01:12;;;;;;;5.50;5.00;;;;;;;-144.30;34.18;82550.88;5049602;28;20201;-74
2023/06/27 11:03:40;;;;;;;6.22;4.38;;;;;;;-144.30;34.60;82598.56;5049761;28;20228;-78
2023/06/27 11:06:07;;;;;;;5.30;4.80;;;;;;;-144.30;34.74;82562.78;5050642;28;20588;-78
2023/06/27 11:08:34;;;;;;;8.85;5.60;;;;;;;-144.30;34.47;82391.97;5050539;28;20247;-77
2023/06/27 11:11:06;;;;;;;6.57;5.00;;;;;;;-144.30;34.21;82423.75;5050523;28;20239;-78
2023/06/27 11:13:40;;;;;;;5.80;4.93;;;;;;;-144.30;34.39;82552.88;5051250;28;20731;-79
2023/06/27 11:16:07;;;;;;;5.18;4.88;;;;;;;-144.30;34.23;82507.19;5050527;28;20192;-79